Terminal Aerodrome Forecast
Issued by NWS Wilmington, OH

Current Version | Previous Version | Text Only | Print | Product List | Glossary On
Versions: 1 2 3 4 5 6 7 8 9 10 11 12 13 14 15 16
000 FTUS41 KILN 231100 TAFDAY TAF KDAY 231137Z 2312/2412 17008KT P6SM OVC060 TEMPO 2316/2318 BKN030 FM231800 15012KT P6SM VCSH BKN020 OVC040 FM232200 13010G18KT 4SM -SHRA BR OVC012 FM240300 16014G26KT 3SM -SHRA BR OVC009 FM240700 18015G25KT P6SM VCSH OVC010=

USA.gov is the U.S. government's official web portal to all federal, state and local government web resources and services.